Time;durP1;ratioP1;P1;durP2;ratioP2;P2;SDS_P1;SDS_P2;PMS_P1;PMS_P2;Temp;Humidity;BMP_temperature;BMP_pressure;BME280_temperature;BME280_humidity;BME280_pressure;Samples;Min_cycle;Max_cycle;Signal;HPM_P1;HPM_P2
2021/05/20 00:00:54;;;;;;;9.15;8.13;;;9.50;99.90;;;;;;5053561;28;20442;-68
2021/05/20 00:03:22;;;;;;;10.07;8.98;;;9.40;99.90;;;;;;5041295;28;20212;-69
2021/05/20 00:05:49;;;;;;;9.82;8.70;;;9.40;99.90;;;;;;5042300;28;20255;-69
2021/05/20 00:08:16;;;;;;;10.13;9.13;;;9.70;99.90;;;;;;5052787;28;20224;-68
2021/05/20 00:10:43;;;;;;;9.80;8.77;;;9.60;99.90;;;;;;5054441;28;20228;-69
2021/05/20 00:13:11;;;;;;;11.43;9.85;;;9.50;99.90;;;;;;5057956;28;20221;-68
2021/05/20 00:15:38;;;;;;;9.57;8.30;;;9.50;99.90;;;;;;5059474;28;20248;-69
2021/05/20 00:18:06;;;;;;;11.70;9.95;;;9.40;99.90;;;;;;5058487;28;20204;-69
2021/05/20 00:20:33;;;;;;;8.75;7.88;;;9.20;99.90;;;;;;5059160;28;20220;-67
2021/05/20 00:23:00;;;;;;;11.48;8.77;;;9.20;99.90;;;;;;5058446;28;20209;-68
2021/05/20 00:25:27;;;;;;;11.00;9.23;;;9.30;99.90;;;;;;5059645;28;20402;-68
2021/05/20 00:27:54;;;;;;;9.75;8.73;;;9.10;99.90;;;;;;5058546;28;20271;-69
2021/05/20 00:30:21;;;;;;;12.48;9.10;;;9.20;99.90;;;;;;5058188;28;20231;-68
2021/05/20 00:32:48;;;;;;;11.05;8.98;;;9.00;99.90;;;;;;5055596;28;20196;-68
2021/05/20 00:35:15;;;;;;;11.15;9.98;;;8.90;99.90;;;;;;5059592;28;20262;-68
2021/05/20 00:37:42;;;;;;;11.20;9.40;;;8.80;99.90;;;;;;5058854;28;20214;-68
2021/05/20 00:40:10;;;;;;;14.15;9.55;;;8.90;99.90;;;;;;5058310;28;20236;-68
2021/05/20 00:42:37;;;;;;;12.10;9.48;;;8.80;99.90;;;;;;5090818;28;20504;-68
2021/05/20 00:45:06;;;;;;;9.35;8.50;;;8.80;99.90;;;;;;5058164;28;20208;-68
2021/05/20 00:47:34;;;;;;;11.43;9.07;;;8.80;99.90;;;;;;5056397;28;20279;-68
2021/05/20 00:50:04;;;;;;;13.13;9.75;;;8.80;99.90;;;;;;5090982;28;20238;-69
2021/05/20 00:52:32;;;;;;;10.38;9.35;;;8.80;99.90;;;;;;5054606;28;20235;-68
2021/05/20 00:55:01;;;;;;;11.00;8.90;;;8.80;99.90;;;;;;5058852;28;20529;-68
2021/05/20 00:57:29;;;;;;;10.50;9.40;;;8.70;99.90;;;;;;5056193;28;20205;-68
2021/05/20 01:00:06;;;;;;;11.85;10.10;;;8.80;99.90;;;;;;5058388;28;20379;-68
2021/05/20 01:02:36;;;;;;;13.10;9.65;;;8.80;99.90;;;;;;5055719;28;20234;-69
2021/05/20 01:05:06;;;;;;;9.75;8.85;;;8.80;99.90;;;;;;5058332;28;20522;-68
2021/05/20 01:07:33;;;;;;;12.32;8.95;;;8.80;99.90;;;;;;5051655;28;20199;-67
2021/05/20 01:10:01;;;;;;;9.88;8.77;;;9.00;99.90;;;;;;5055132;28;20703;-68
2021/05/20 01:12:28;;;;;;;8.73;7.93;;;9.00;99.90;;;;;;5057658;28;20255;-68
2021/05/20 01:14:55;;;;;;;7.80;6.47;;;9.00;99.90;;;;;;5052142;28;20214;-68
2021/05/20 01:17:25;;;;;;;7.80;7.00;;;9.00;99.90;;;;;;5044964;28;20213;-68
2021/05/20 01:19:52;;;;;;;8.38;7.32;;;9.00;99.90;;;;;;5054010;28;20208;-69
2021/05/20 01:22:19;;;;;;;9.75;7.28;;;9.10;99.90;;;;;;5049515;28;20212;-68
2021/05/20 01:24:46;;;;;;;11.20;7.60;;;9.00;99.90;;;;;;5048233;28;20204;-69
2021/05/20 01:27:14;;;;;;;8.50;7.38;;;8.90;99.90;;;;;;5048639;28;20208;-68
2021/05/20 01:29:43;;;;;;;13.07;8.20;;;8.80;99.90;;;;;;5054607;28;20212;-67
2021/05/20 01:32:11;;;;;;;8.77;7.88;;;8.80;99.90;;;;;;5046727;28;20269;-70
2021/05/20 01:34:39;;;;;;;9.38;8.05;;;8.70;99.90;;;;;;5057842;28;20215;-68
2021/05/20 01:37:08;;;;;;;9.82;8.52;;;8.70;99.90;;;;;;5056585;28;20219;-68
2021/05/20 01:39:37;;;;;;;9.88;8.07;;;8.70;99.90;;;;;;5057784;28;20203;-68
2021/05/20 01:42:05;;;;;;;8.90;8.00;;;8.70;99.90;;;;;;5055505;28;20208;-67
2021/05/20 01:44:32;;;;;;;8.82;7.72;;;8.50;99.90;;;;;;5054107;28;20555;-68
2021/05/20 01:46:59;;;;;;;12.27;9.57;;;8.50;99.90;;;;;;5057936;28;20597;-67
2021/05/20 01:49:26;;;;;;;10.68;8.15;;;8.40;99.90;;;;;;5056646;28;20211;-68
2021/05/20 01:51:53;;;;;;;9.20;8.25;;;8.50;99.90;;;;;;5057913;28;20460;-67
2021/05/20 01:54:20;;;;;;;11.10;8.90;;;8.40;99.90;;;;;;5078574;28;20208;-68
2021/05/20 01:56:47;;;;;;;7.50;6.60;;;8.40;99.90;;;;;;5059178;28;20213;-68
2021/05/20 01:59:14;;;;;;;10.07;7.90;;;8.30;99.90;;;;;;5056030;28;20212;-68
2021/05/20 02:01:41;;;;;;;9.90;8.40;;;8.30;99.90;;;;;;5056176;28;20208;-67
2021/05/20 02:04:08;;;;;;;13.60;10.02;;;8.10;99.90;;;;;;5057497;28;20249;-68
2021/05/20 02:06:35;;;;;;;13.98;9.43;;;8.10;99.90;;;;;;5047227;28;20203;-67
2021/05/20 02:09:05;;;;;;;11.55;10.13;;;8.10;99.90;;;;;;5048270;28;20216;-68
2021/05/20 02:11:32;;;;;;;12.50;10.00;;;8.00;99.90;;;;;;5056872;28;20231;-69
2021/05/20 02:13:59;;;;;;;12.88;10.40;;;8.00;99.90;;;;;;5056470;28;20265;-67
2021/05/20 02:16:26;;;;;;;11.15;9.80;;;8.10;99.90;;;;;;5057186;28;20214;-68
2021/05/20 02:18:53;;;;;;;12.77;9.90;;;8.00;99.90;;;;;;5048377;28;20208;-68
2021/05/20 02:21:20;;;;;;;12.80;11.35;;;8.00;99.90;;;;;;5053073;28;20216;-68
2021/05/20 02:23:48;;;;;;;14.68;10.88;;;7.90;99.90;;;;;;5051319;28;20211;-68
2021/05/20 02:26:15;;;;;;;12.23;10.13;;;7.90;99.90;;;;;;5053511;28;20204;-67
2021/05/20 02:28:42;;;;;;;13.40;11.48;;;7.90;99.90;;;;;;5057073;28;20214;-69
2021/05/20 02:31:10;;;;;;;12.95;9.55;;;7.90;99.90;;;;;;5056931;28;20273;-67
2021/05/20 02:33:38;;;;;;;12.02;9.35;;;7.90;99.90;;;;;;5057111;28;20208;-69
2021/05/20 02:36:05;;;;;;;12.45;10.43;;;8.00;99.90;;;;;;5055963;28;20208;-68
2021/05/20 02:38:33;;;;;;;10.45;9.35;;;7.90;99.90;;;;;;5047933;28;20208;-68
2021/05/20 02:41:00;;;;;;;12.90;9.95;;;7.90;99.90;;;;;;5053048;28;20282;-67
2021/05/20 02:43:27;;;;;;;15.48;11.15;;;7.80;99.90;;;;;;5054762;28;20294;-67
2021/05/20 02:45:54;;;;;;;13.73;10.23;;;7.80;99.90;;;;;;5047439;28;20253;-66
2021/05/20 02:48:21;;;;;;;11.65;9.60;;;7.80;99.90;;;;;;5059540;28;20214;-67
2021/05/20 02:50:48;;;;;;;13.13;10.82;;;7.70;99.90;;;;;;5059215;28;20226;-67
2021/05/20 02:53:16;;;;;;;13.20;9.73;;;7.70;99.90;;;;;;5060629;28;20592;-67
2021/05/20 02:55:43;;;;;;;18.42;10.38;;;7.70;99.90;;;;;;5051875;28;20355;-69
2021/05/20 02:58:14;;;;;;;10.00;8.50;;;7.70;99.90;;;;;;5045604;28;20302;-68
2021/05/20 03:00:41;;;;;;;11.90;8.38;;;7.60;99.90;;;;;;5054672;28;20208;-68
2021/05/20 03:03:08;;;;;;;10.65;8.88;;;7.70;99.90;;;;;;5060137;28;20215;-68
2021/05/20 03:05:35;;;;;;;13.52;10.90;;;7.70;99.90;;;;;;5057542;28;20278;-67
2021/05/20 03:08:02;;;;;;;15.30;11.52;;;7.60;99.90;;;;;;5060335;28;20550;-67
2021/05/20 03:10:30;;;;;;;18.05;10.82;;;7.70;99.90;;;;;;5060589;28;20230;-68
2021/05/20 03:12:57;;;;;;;14.63;10.65;;;7.80;99.90;;;;;;5058822;28;20234;-68
2021/05/20 03:15:24;;;;;;;14.02;11.02;;;7.90;99.90;;;;;;5048583;28;20212;-68
2021/05/20 03:17:51;;;;;;;12.60;10.30;;;7.80;99.90;;;;;;5051241;28;20517;-68
2021/05/20 03:20:19;;;;;;;14.13;10.13;;;7.80;99.90;;;;;;5059683;28;20529;-68
2021/05/20 03:22:47;;;;;;;12.60;9.30;;;7.80;99.90;;;;;;5059857;28;20539;-68
2021/05/20 03:25:18;;;;;;;9.82;8.48;;;7.70;99.90;;;;;;5054729;28;20204;-68
2021/05/20 03:27:45;;;;;;;12.18;9.45;;;7.80;99.90;;;;;;5059847;28;20283;-67
2021/05/20 03:30:13;;;;;;;12.68;9.27;;;7.80;99.90;;;;;;5056550;28;20223;-68
2021/05/20 03:32:40;;;;;;;13.35;10.35;;;7.90;99.90;;;;;;5053486;28;20232;-67
2021/05/20 03:35:08;;;;;;;17.05;11.10;;;7.90;99.90;;;;;;5059472;28;20241;-68
2021/05/20 03:37:36;;;;;;;10.40;8.63;;;8.10;99.90;;;;;;5055665;28;20404;-67
2021/05/20 03:40:05;;;;;;;12.18;10.27;;;8.30;99.90;;;;;;5059652;28;20227;-68
2021/05/20 03:42:32;;;;;;;15.93;8.98;;;8.40;99.90;;;;;;5054879;28;20768;-67
2021/05/20 03:44:59;;;;;;;9.75;8.73;;;8.50;99.90;;;;;;5055432;28;20639;-67
2021/05/20 03:47:26;;;;;;;10.38;9.27;;;8.60;99.90;;;;;;5049840;28;20210;-68
2021/05/20 03:49:53;;;;;;;11.88;9.40;;;8.70;99.90;;;;;;5052593;28;20204;-67
2021/05/20 03:52:20;;;;;;;12.38;7.95;;;8.60;99.90;;;;;;5059387;28;20562;-68
2021/05/20 03:54:49;;;;;;;9.65;7.65;;;8.60;99.90;;;;;;5059336;28;20422;-67
2021/05/20 03:57:16;;;;;;;11.27;8.77;;;8.60;99.90;;;;;;5059299;28;20200;-68
2021/05/20 03:59:43;;;;;;;11.60;9.02;;;8.70;99.90;;;;;;5058830;28;20238;-68
2021/05/20 04:02:10;;;;;;;10.50;9.48;;;8.80;99.90;;;;;;5058397;28;20211;-68
2021/05/20 04:04:37;;;;;;;13.70;9.00;;;8.80;99.90;;;;;;5058325;28;20211;-68
2021/05/20 04:07:04;;;;;;;10.65;9.55;;;8.80;99.90;;;;;;5058847;28;20213;-68
2021/05/20 04:09:31;;;;;;;11.20;9.15;;;8.80;99.90;;;;;;5057861;28;20207;-68
2021/05/20 04:11:58;;;;;;;9.85;8.63;;;8.90;99.90;;;;;;5052024;28;20227;-67
2021/05/20 04:14:25;;;;;;;10.55;8.95;;;8.90;99.90;;;;;;5052184;28;20208;-69
2021/05/20 04:16:52;;;;;;;9.68;8.88;;;9.00;99.90;;;;;;5056810;28;20262;-68
2021/05/20 04:19:19;;;;;;;18.95;9.32;;;9.20;99.90;;;;;;5058132;28;20511;-68
2021/05/20 04:21:46;;;;;;;9.25;8.30;;;9.30;99.90;;;;;;5054408;28;20212;-68
2021/05/20 04:24:13;;;;;;;12.00;8.27;;;9.60;99.90;;;;;;5058384;28;20507;-67
2021/05/20 04:26:41;;;;;;;10.75;8.75;;;9.60;99.90;;;;;;5053686;28;20215;-69
2021/05/20 04:29:09;;;;;;;13.40;9.45;;;9.80;99.90;;;;;;5055050;28;20210;-69
2021/05/20 04:31:36;;;;;;;15.68;8.80;;;9.90;99.90;;;;;;5058462;28;20454;-69
2021/05/20 04:34:03;;;;;;;10.02;7.75;;;9.90;99.90;;;;;;5058023;28;20205;-69
2021/05/20 04:36:30;;;;;;;10.65;8.38;;;10.00;99.90;;;;;;5055063;28;20215;-68
2021/05/20 04:38:57;;;;;;;8.65;7.75;;;10.10;99.90;;;;;;5055004;28;20484;-68
2021/05/20 04:41:24;;;;;;;8.85;7.90;;;10.10;99.90;;;;;;5052843;28;20245;-66
2021/05/20 04:43:51;;;;;;;10.82;9.05;;;10.10;99.90;;;;;;5057983;28;20255;-68
2021/05/20 04:46:18;;;;;;;11.93;9.23;;;10.10;99.90;;;;;;5057814;28;20208;-69
2021/05/20 04:48:45;;;;;;;11.63;10.50;;;10.10;99.90;;;;;;5057677;28;20212;-67
2021/05/20 04:51:13;;;;;;;14.55;9.18;;;10.20;99.90;;;;;;5051431;28;20243;-69
2021/05/20 04:53:40;;;;;;;10.45;9.45;;;10.30;99.90;;;;;;5056422;28;20530;-68
2021/05/20 04:56:07;;;;;;;10.05;9.05;;;10.40;99.90;;;;;;5049852;28;20267;-68
2021/05/20 04:58:35;;;;;;;17.00;8.32;;;10.60;99.90;;;;;;5055721;28;20428;-68
2021/05/20 05:01:02;;;;;;;11.18;7.90;;;10.80;99.90;;;;;;5052349;28;20272;-69
2021/05/20 05:03:31;;;;;;;11.63;7.70;;;10.90;99.90;;;;;;5057634;28;20280;-68
2021/05/20 05:05:58;;;;;;;10.05;8.02;;;11.00;99.90;;;;;;5057748;28;20216;-69
2021/05/20 05:08:25;;;;;;;11.68;7.65;;;11.20;99.90;;;;;;5054378;28;20211;-69
2021/05/20 05:10:52;;;;;;;9.10;7.50;;;11.40;99.90;;;;;;5056969;28;20456;-69
2021/05/20 05:13:19;;;;;;;8.70;7.55;;;11.10;99.90;;;;;;5040496;28;20246;-68
2021/05/20 05:15:47;;;;;;;10.55;8.07;;;11.70;99.90;;;;;;5054925;28;20281;-69
2021/05/20 05:18:14;;;;;;;7.47;6.78;;;11.90;99.90;;;;;;5057722;28;20404;-68
2021/05/20 05:20:41;;;;;;;18.00;7.60;;;12.00;99.90;;;;;;5055938;28;20509;-69
2021/05/20 05:23:08;;;;;;;12.15;7.82;;;12.10;99.90;;;;;;5051722;28;20219;-70
2021/05/20 05:25:38;;;;;;;9.73;8.20;;;12.20;99.90;;;;;;5056398;28;20210;-68
2021/05/20 05:28:06;;;;;;;16.80;8.27;;;12.30;99.90;;;;;;5056885;28;20214;-68
2021/05/20 05:30:34;;;;;;;11.13;9.45;;;12.30;99.90;;;;;;5056200;28;20273;-68
2021/05/20 05:33:01;;;;;;;11.60;7.90;;;12.50;99.90;;;;;;5057888;28;20227;-69
2021/05/20 05:35:29;;;;;;;9.57;7.57;;;12.70;99.90;;;;;;5055454;28;20264;-69
2021/05/20 05:37:56;;;;;;;11.77;8.25;;;12.80;99.90;;;;;;5057139;28;20253;-68
2021/05/20 05:40:23;;;;;;;14.63;7.30;;;12.90;99.90;;;;;;5050687;28;20242;-69
2021/05/20 05:42:50;;;;;;;11.45;7.63;;;13.20;99.90;;;;;;5050921;28;20200;-70
2021/05/20 05:45:18;;;;;;;7.63;6.85;;;13.50;99.90;;;;;;5058059;28;20243;-69
2021/05/20 05:47:45;;;;;;;8.73;6.80;;;13.20;99.90;;;;;;5051547;28;20195;-70
2021/05/20 05:50:13;;;;;;;8.40;6.60;;;13.60;99.90;;;;;;5051148;28;20213;-70
2021/05/20 05:52:41;;;;;;;7.93;6.82;;;13.80;99.90;;;;;;5049894;28;20224;-69
2021/05/20 05:55:09;;;;;;;22.23;7.72;;;14.20;99.90;;;;;;5057125;28;20211;-70
2021/05/20 05:57:36;;;;;;;15.98;7.85;;;14.40;99.90;;;;;;5056563;28;20211;-70
2021/05/20 06:00:05;;;;;;;7.90;6.38;;;14.60;99.90;;;;;;5050668;28;20274;-69
2021/05/20 06:02:33;;;;;;;8.05;7.05;;;14.80;99.90;;;;;;5056074;28;20353;-69
2021/05/20 06:05:03;;;;;;;9.85;5.95;;;15.00;99.90;;;;;;5056798;28;20207;-70
2021/05/20 06:07:35;;;;;;;7.30;6.60;;;15.20;99.70;;;;;;5051547;28;20242;-70
2021/05/20 06:10:05;;;;;;;12.82;6.85;;;15.30;99.60;;;;;;5060655;28;20247;-70
2021/05/20 06:12:32;;;;;;;7.38;6.75;;;15.30;99.20;;;;;;5060297;28;20444;-70
2021/05/20 06:15:00;;;;;;;8.18;6.47;;;15.50;99.20;;;;;;5054621;28;20271;-70
2021/05/20 06:17:27;;;;;;;8.03;7.23;;;15.80;98.90;;;;;;5051869;28;20517;-70
2021/05/20 06:19:54;;;;;;;10.57;8.03;;;16.40;98.30;;;;;;5054543;28;20453;-69
2021/05/20 06:22:21;;;;;;;12.43;7.60;;;16.90;96.60;;;;;;5055837;28;20501;-70
2021/05/20 06:24:48;;;;;;;8.83;8.13;;;17.30;96.30;;;;;;5060582;28;20484;-71
2021/05/20 06:27:15;;;;;;;7.87;7.27;;;17.80;94.90;;;;;;5048917;28;20442;-71
2021/05/20 06:29:42;;;;;;;9.50;8.53;;;18.60;93.40;;;;;;5060284;28;20451;-71
2021/05/20 06:32:09;;;;;;;7.60;6.93;;;19.00;92.80;;;;;;5050106;28;20457;-71
2021/05/20 06:34:36;;;;;;;9.07;8.17;;;19.40;92.10;;;;;;5057717;28;20609;-70
2021/05/20 06:37:04;;;;;;;8.10;7.50;;;19.70;91.90;;;;;;5059489;28;20685;-70
2021/05/20 06:39:31;;;;;;;8.60;7.80;;;20.00;91.00;;;;;;5055030;28;20457;-70
2021/05/20 06:41:58;;;;;;;8.70;7.47;;;20.50;90.10;;;;;;5060790;28;20477;-70
2021/05/20 06:44:25;;;;;;;8.70;8.00;;;21.10;87.50;;;;;;5058713;28;20414;-69
2021/05/20 06:46:52;;;;;;;8.03;7.53;;;21.60;84.10;;;;;;5061063;28;20739;-70
2021/05/20 06:49:20;;;;;;;8.00;7.30;;;22.00;78.90;;;;;;5056787;28;20452;-71
2021/05/20 06:51:47;;;;;;;8.93;8.23;;;22.80;76.80;;;;;;5059342;28;20419;-70
2021/05/20 06:54:15;;;;;;;8.37;7.70;;;24.40;71.10;;;;;;5056900;28;20484;-71
2021/05/20 06:56:47;;;;;;;13.33;8.87;;;26.00;63.90;;;;;;5059205;28;20412;-70
2021/05/20 07:01:59;;;;;;;10.03;9.00;;;28.40;53.60;;;;;;5059718;28;20464;-70
2021/05/20 07:04:27;;;;;;;9.00;8.60;;;29.40;49.50;;;;;;5057660;28;20443;-70
2021/05/20 07:06:54;;;;;;;9.57;8.80;;;29.60;47.80;;;;;;5058546;28;20507;-70
2021/05/20 07:09:25;;;;;;;9.77;9.10;;;30.00;47.50;;;;;;5059410;28;20580;-70
2021/05/20 07:11:53;;;;;;;10.20;9.50;;;30.80;43.80;;;;;;5059417;28;20520;-70
2021/05/20 07:14:20;;;;;;;11.37;10.40;;;32.30;41.40;;;;;;5058571;28;20483;-71
2021/05/20 07:16:47;;;;;;;10.70;10.10;;;31.90;41.50;;;;;;5052097;28;20499;-70
2021/05/20 07:19:21;;;;;;;11.70;11.10;;;32.40;40.70;;;;;;5059980;28;20799;-72
2021/05/20 07:21:49;;;;;;;11.10;10.40;;;32.50;40.00;;;;;;5051843;28;20441;-70
2021/05/20 07:24:17;;;;;;;10.93;10.23;;;33.40;39.00;;;;;;5059842;28;20549;-71
2021/05/20 07:26:50;;;;;;;9.70;9.20;;;32.40;39.20;;;;;;5049751;28;20453;-70
2021/05/20 07:29:17;;;;;;;10.80;10.20;;;32.50;38.00;;;;;;5058192;28;20851;-71
2021/05/20 07:31:44;;;;;;;10.93;10.33;;;32.10;39.00;;;;;;5059180;28;20462;-71
2021/05/20 07:34:11;;;;;;;10.60;10.10;;;32.90;38.30;;;;;;5057897;28;20882;-71
2021/05/20 07:36:39;;;;;;;10.43;9.90;;;33.10;36.90;;;;;;5057443;28;20511;-70
2021/05/20 07:39:06;;;;;;;10.40;9.80;;;33.00;37.10;;;;;;5059802;28;20615;-69
2021/05/20 07:41:34;;;;;;;11.53;10.37;;;32.80;36.60;;;;;;5058879;28;20503;-72
2021/05/20 07:44:03;;;;;;;11.23;10.63;;;33.50;37.20;;;;;;5058242;28;20458;-72
2021/05/20 07:46:30;;;;;;;9.93;9.33;;;32.40;37.50;;;;;;5057714;28;20475;-70
2021/05/20 07:48:58;;;;;;;10.97;10.27;;;32.90;36.60;;;;;;5052356;28;20444;-71
2021/05/20 07:51:25;;;;;;;10.83;10.33;;;33.40;36.50;;;;;;5058679;28;20443;-71
2021/05/20 07:53:52;;;;;;;10.67;10.13;;;32.70;36.60;;;;;;5060093;28;20491;-72
2021/05/20 07:56:20;;;;;;;10.10;9.50;;;31.90;37.50;;;;;;5052229;28;20453;-72
2021/05/20 07:58:52;;;;;;;10.90;10.30;;;32.60;37.20;;;;;;5059648;28;20467;-71
2021/05/20 08:01:22;;;;;;;9.70;9.30;;;33.40;36.40;;;;;;5053192;28;20737;-71
2021/05/20 08:03:53;;;;;;;9.53;9.03;;;32.50;37.20;;;;;;5059186;28;20451;-72
2021/05/20 08:07:08;;;;;;;10.83;10.23;;;32.00;37.70;;;;;;5057606;28;20441;-71
2021/05/20 08:09:24;;;;;;;10.70;10.17;;;30.80;38.70;;;;;;5058623;28;20444;-72
2021/05/20 08:11:51;;;;;;;14.23;10.73;;;31.00;39.60;;;;;;5057537;28;20444;-71
2021/05/20 08:14:18;;;;;;;10.30;9.60;;;31.80;38.40;;;;;;5079002;28;20500;-73
2021/05/20 08:16:45;;;;;;;11.07;10.57;;;30.40;39.90;;;;;;5056539;28;21000;-73
2021/05/20 08:19:13;;;;;;;11.37;10.50;;;31.30;38.20;;;;;;5058651;28;20507;-72
2021/05/20 08:21:41;;;;;;;10.23;9.73;;;32.20;37.40;;;;;;5054910;28;20814;-72
2021/05/20 08:24:08;;;;;;;9.77;9.03;;;33.60;35.30;;;;;;5058725;28;20449;-73
2021/05/20 08:26:35;;;;;;;9.90;9.10;;;30.60;38.30;;;;;;5051718;28;20446;-73
2021/05/20 08:29:03;;;;;;;11.17;10.00;;;28.60;42.50;;;;;;5058206;28;20445;-72
2021/05/20 08:31:32;;;;;;;10.43;9.83;;;30.70;40.10;;;;;;5056638;28;20783;-73
2021/05/20 08:33:59;;;;;;;9.80;9.30;;;31.90;36.00;;;;;;5059159;28;20774;-74
2021/05/20 08:36:27;;;;;;;10.50;9.90;;;32.70;35.40;;;;;;5047550;28;20445;-73
2021/05/20 08:38:54;;;;;;;10.10;9.50;;;32.30;35.60;;;;;;5053329;28;20464;-74
2021/05/20 08:41:22;;;;;;;9.30;8.80;;;29.70;39.10;;;;;;5053319;28;20472;-73
2021/05/20 08:43:49;;;;;;;10.33;9.53;;;28.40;42.00;;;;;;5053963;28;20445;-72
2021/05/20 08:46:24;;;;;;;10.40;9.63;;;27.00;45.30;;;;;;5053364;28;20673;-71
2021/05/20 08:48:52;;;;;;;9.23;8.63;;;25.20;48.70;;;;;;5049699;28;20843;-74
2021/05/20 08:51:20;;;;;;;10.03;9.43;;;24.00;51.50;;;;;;5054768;28;20645;-73
2021/05/20 08:53:47;;;;;;;8.30;7.80;;;23.30;52.90;;;;;;5057890;28;20568;-75
2021/05/20 08:56:17;;;;;;;8.37;7.87;;;22.10;54.50;;;;;;5058971;28;20429;-75
2021/05/20 08:58:45;;;;;;;8.93;8.33;;;20.90;56.90;;;;;;5057287;28;20439;-75
2021/05/20 09:01:41;;;;;;;9.33;8.53;;;21.40;57.70;;;;;;5057932;28;20686;-73
2021/05/20 09:04:10;;;;;;;9.10;8.40;;;25.20;49.10;;;;;;5055511;28;20469;-74
2021/05/20 09:06:55;;;;;;;7.87;7.50;;;27.40;44.70;;;;;;5052889;28;20417;-72
2021/05/20 09:09:26;;;;;;;8.80;8.20;;;30.50;39.60;;;;;;5050465;28;20437;-72
2021/05/20 09:11:58;;;;;;;8.33;7.90;;;30.10;39.00;;;;;;5057595;28;20451;-73
2021/05/20 09:14:38;;;;;;;8.47;8.07;;;30.30;38.40;;;;;;5058273;28;20645;-73
2021/05/20 09:17:17;;;;;;;8.40;8.00;;;27.50;41.00;;;;;;5043968;28;20619;-72
2021/05/20 09:20:09;;;;;;;7.90;7.50;;;27.80;42.00;;;;;;5050999;28;20433;-74
2021/05/20 09:22:37;;;;;;;8.70;8.20;;;27.30;43.30;;;;;;5079135;28;20437;-74
2021/05/20 09:25:06;;;;;;;8.70;8.20;;;25.70;45.90;;;;;;5057565;28;20440;-74
2021/05/20 09:27:45;;;;;;;8.47;7.93;;;23.70;49.90;;;;;;5049928;28;20712;-75
2021/05/20 09:30:18;;;;;;;7.43;7.03;;;22.40;53.40;;;;;;5047390;28;20470;-72
2021/05/20 09:32:56;;;;;;;8.03;7.43;;;21.80;53.80;;;;;;5046794;28;20654;-73
2021/05/20 09:35:30;;;;;;;7.77;7.33;;;21.10;54.40;;;;;;5053318;28;20428;-72
2021/05/20 09:37:59;;;;;;;7.73;7.33;;;21.00;53.50;;;;;;5048229;28;20413;-73
2021/05/20 09:40:36;;;;;;;8.83;8.20;;;20.90;56.10;;;;;;5056825;28;20473;-74
2021/05/20 09:43:21;;;;;;;9.00;8.30;;;21.10;56.60;;;;;;5056479;28;20906;-74
2021/05/20 09:45:51;;;;;;;7.40;6.93;;;21.50;56.20;;;;;;5050024;28;20438;-73
2021/05/20 09:48:21;;;;;;;7.17;6.70;;;21.40;54.40;;;;;;5057672;28;20483;-74
2021/05/20 09:50:50;;;;;;;7.17;6.77;;;20.80;56.20;;;;;;5045826;28;20445;-75
2021/05/20 09:53:19;;;;;;;8.23;7.63;;;20.00;58.70;;;;;;5048594;28;20476;-71
2021/05/20 09:55:48;;;;;;;6.87;6.37;;;19.00;69.70;;;;;;5047385;28;20423;-72
2021/05/20 09:58:15;;;;;;;7.10;6.50;;;17.20;94.70;;;;;;5054398;28;20471;-70
2021/05/20 10:00:43;;;;;;;10.73;5.27;;;15.60;99.90;;;;;;5053237;28;20753;-70
2021/05/20 10:03:13;;;;;;;11.83;6.10;;;15.20;99.90;;;;;;5049640;28;20479;-69
2021/05/20 10:05:48;;;;;;;5.50;5.00;;;15.10;99.90;;;;;;5044877;28;20511;-71
2021/05/20 10:08:17;;;;;;;6.37;5.87;;;15.40;99.90;;;;;;5050229;28;20652;-71
2021/05/20 10:10:47;;;;;;;6.70;6.03;;;15.60;99.90;;;;;;5057669;28;20893;-73
2021/05/20 10:13:20;;;;;;;5.80;4.70;;;16.30;99.90;;;;;;5056599;28;20463;-73
2021/05/20 10:15:48;;;;;;;5.30;4.80;;;16.70;99.90;;;;;;5049588;28;20753;-73
2021/05/20 10:18:18;;;;;;;3.93;3.63;;;16.90;99.90;;;;;;5053936;28;20421;-74
2021/05/20 10:20:54;;;;;;;4.40;4.10;;;17.50;99.90;;;;;;5053086;28;20419;-73
2021/05/20 10:23:23;;;;;;;7.70;5.27;;;18.20;99.00;;;;;;5046750;28;20455;-73
2021/05/20 10:25:52;;;;;;;5.70;5.30;;;18.80;95.60;;;;;;5044771;28;20455;-71
2021/05/20 10:28:20;;;;;;;4.33;4.03;;;19.40;91.90;;;;;;5049161;28;20418;-71
2021/05/20 10:30:49;;;;;;;5.40;4.90;;;19.80;93.20;;;;;;5057220;28;20435;-72
2021/05/20 10:33:18;;;;;;;6.40;5.90;;;20.30;91.10;;;;;;5057132;28;20484;-71
2021/05/20 10:35:46;;;;;;;7.57;6.10;;;20.70;90.50;;;;;;5050212;28;20419;-71
2021/05/20 10:38:35;;;;;;;7.20;6.70;;;20.70;90.20;;;;;;5056824;28;20437;-70
2021/05/20 10:41:23;;;;;;;10.10;6.60;;;20.60;90.10;;;;;;5056528;28;20496;-71
2021/05/20 10:44:03;;;;;;;5.93;5.53;;;20.90;89.80;;;;;;5052748;28;20431;-69
2021/05/20 10:46:30;;;;;;;6.60;6.10;;;20.90;88.20;;;;;;5054937;28;20719;-71
2021/05/20 10:49:02;;;;;;;5.67;5.30;;;20.70;89.00;;;;;;5046731;28;20449;-71
2021/05/20 10:51:36;;;;;;;6.03;5.60;;;20.30;90.10;;;;;;5046615;28;20450;-74
2021/05/20 10:54:03;;;;;;;10.13;8.00;;;19.60;95.00;;;;;;5055447;28;20480;-73
2021/05/20 10:56:47;;;;;;;9.20;8.27;;;18.10;99.90;;;;;;5061321;28;20725;-68
2021/05/20 10:59:32;;;;;;;8.73;8.03;;;16.30;99.90;;;;;;5060486;28;20593;-65
2021/05/20 11:01:59;;;;;;;5.70;5.30;;;15.00;99.90;;;;;;5059870;28;20439;-63
2021/05/20 11:04:35;;;;;;;6.05;5.65;;;14.50;99.90;;;;;;5059983;28;20818;-64
2021/05/20 11:07:02;;;;;;;7.13;5.50;;;14.40;99.90;;;;;;5060090;28;20246;-65
2021/05/20 11:09:46;;;;;;;5.60;5.20;;;14.50;99.90;;;;;;5059933;28;20234;-67
2021/05/20 11:12:17;;;;;;;6.32;5.30;;;14.40;99.90;;;;;;5060613;28;20506;-67
2021/05/20 11:14:46;;;;;;;3.85;3.55;;;14.80;99.90;;;;;;5059606;28;20299;-69
2021/05/20 11:17:29;;;;;;;4.00;3.70;;;14.80;99.90;;;;;;5060840;28;20208;-70
2021/05/20 11:20:31;;;;;;;6.38;4.07;;;14.90;99.90;;;;;;5050048;28;20249;-71
2021/05/20 11:23:22;;;;;;;4.30;3.90;;;15.40;99.90;;;;;;5044697;28;20210;-72
2021/05/20 11:26:00;;;;;;;5.78;3.58;;;15.80;99.90;;;;;;5079166;28;20216;-72
2021/05/20 11:28:27;;;;;;;5.18;4.30;;;16.20;99.90;;;;;;5058024;28;20204;-73
2021/05/20 11:31:00;;;;;;;4.57;4.13;;;16.40;99.90;;;;;;5058095;28;20287;-73
2021/05/20 11:33:30;;;;;;;4.82;4.30;;;16.40;99.90;;;;;;5055729;28;20229;-73
2021/05/20 11:38:29;;;;;;;3.20;3.00;;;16.70;99.90;;;;;;5056895;28;20426;-73
2021/05/20 11:40:56;;;;;;;2.87;2.67;;;16.80;99.90;;;;;;5054874;28;20478;-71
2021/05/20 11:43:30;;;;;;;4.67;3.90;;;16.80;99.60;;;;;;5059817;28;20461;-70
2021/05/20 11:45:58;;;;;;;3.73;3.53;;;16.90;98.80;;;;;;5054970;28;20458;-69
2021/05/20 11:48:25;;;;;;;4.40;4.03;;;17.20;97.90;;;;;;5056729;28;20620;-69
2021/05/20 11:50:53;;;;;;;4.13;3.83;;;17.60;98.00;;;;;;5052882;28;20414;-68
2021/05/20 11:53:20;;;;;;;4.20;3.87;;;17.70;95.20;;;;;;5059460;28;20843;-70
2021/05/20 11:55:47;;;;;;;4.10;3.80;;;17.60;96.40;;;;;;5058294;28;20416;-69
2021/05/20 11:58:16;;;;;;;4.50;4.20;;;18.00;95.40;;;;;;5057361;28;20418;-71
2021/05/20 12:00:43;;;;;;;4.40;4.10;;;18.70;95.40;;;;;;5059888;28;20767;-71
2021/05/20 12:03:10;;;;;;;4.23;3.83;;;19.00;95.60;;;;;;5055912;28;20448;-71
2021/05/20 12:05:38;;;;;;;5.07;4.40;;;19.70;93.70;;;;;;5056059;28;20465;-70
2021/05/20 12:08:18;;;;;;;4.33;3.93;;;20.10;91.60;;;;;;5049945;28;20697;-68
2021/05/20 12:10:53;;;;;;;5.50;3.80;;;20.30;91.40;;;;;;5056341;28;20423;-71
2021/05/20 12:13:20;;;;;;;4.43;4.23;;;19.80;88.80;;;;;;5053565;28;20444;-70
2021/05/20 12:15:48;;;;;;;4.93;4.73;;;19.90;88.60;;;;;;5058809;28;20478;-68
2021/05/20 12:18:17;;;;;;;5.23;4.83;;;19.70;86.80;;;;;;5055421;28;20522;-69
2021/05/20 12:20:46;;;;;;;5.23;4.93;;;19.40;87.10;;;;;;5057055;28;20462;-71
2021/05/20 12:23:13;;;;;;;5.13;4.73;;;19.80;89.10;;;;;;5058773;28;20453;-69
2021/05/20 12:25:40;;;;;;;8.37;5.53;;;20.50;87.80;;;;;;5053103;28;20416;-70
2021/05/20 12:28:10;;;;;;;5.53;5.10;;;20.70;88.70;;;;;;5059029;28;20474;-67
2021/05/20 12:30:40;;;;;;;5.50;5.10;;;20.50;86.40;;;;;;5051023;28;20563;-70
2021/05/20 12:33:09;;;;;;;5.03;4.73;;;20.30;86.10;;;;;;5057011;28;20475;-68
2021/05/20 12:35:36;;;;;;;5.23;4.83;;;20.20;83.20;;;;;;5057852;28;20411;-67
2021/05/20 12:38:08;;;;;;;5.07;4.87;;;19.50;85.80;;;;;;5056949;28;20411;-68
2021/05/20 12:40:45;;;;;;;4.80;4.60;;;19.50;86.80;;;;;;5052567;28;20472;-68
2021/05/20 12:43:18;;;;;;;4.93;4.63;;;19.60;86.90;;;;;;5054829;28;20724;-69
2021/05/20 12:45:53;;;;;;;4.83;4.53;;;19.70;87.30;;;;;;5058233;28;20487;-66
2021/05/20 12:48:27;;;;;;;5.10;4.90;;;19.30;82.30;;;;;;5054855;28;20421;-68
2021/05/20 12:50:55;;;;;;;4.47;4.27;;;19.20;84.20;;;;;;5055193;28;20416;-67
2021/05/20 12:53:26;;;;;;;4.20;4.10;;;19.20;83.90;;;;;;5056131;28;20644;-69
2021/05/20 12:55:53;;;;;;;4.70;4.50;;;19.10;83.70;;;;;;5055551;28;20441;-68
2021/05/20 12:58:21;;;;;;;5.10;4.80;;;18.90;86.80;;;;;;5057549;28;20441;-68